createdAt,value
2023-01-30T00:04:02.038Z,74.14
2023-01-30T00:09:04.277Z,74.16
2023-01-30T00:14:06.279Z,74.51
2023-01-30T00:19:08.083Z,74.58
2023-01-30T00:24:10.104Z,74.65
2023-01-30T00:29:12.206Z,74.71
2023-01-30T00:34:18.712Z,75.20
2023-01-30T00:39:20.574Z,75.53
2023-01-30T00:44:40.994Z,76.06
2023-01-30T00:49:43.451Z,77.06
2023-01-30T00:54:45.301Z,78.35
2023-01-30T00:59:49.736Z,79.23
2023-01-30T01:04:52.381Z,80.10
2023-01-30T01:09:54.367Z,81.07
2023-01-30T01:14:56.132Z,82.25
2023-01-30T01:19:58.186Z,82.87
2023-01-30T01:25:01.789Z,82.94
2023-01-30T01:30:04.296Z,82.73
2023-01-30T01:35:06.301Z,83.27
2023-01-30T01:40:27.112Z,83.88
2023-01-30T01:45:29.623Z,84.79
2023-01-30T01:50:40.676Z,85.07
2023-01-30T01:55:44.786Z,85.55
2023-01-30T02:00:47.976Z,85.68
2023-01-30T02:05:51.654Z,85.14
2023-01-30T02:11:00.484Z,85.17
2023-01-30T02:16:04.607Z,84.73
2023-01-30T02:21:26.755Z,84.63
2023-01-30T02:26:47.348Z,84.45
2023-01-30T02:31:52.489Z,84.14
2023-01-30T02:36:55.262Z,83.85
2023-01-30T02:42:00.848Z,83.48
2023-01-30T02:47:02.806Z,83.48
2023-01-30T02:52:06.832Z,82.99
2023-01-30T02:57:18.639Z,82.66
2023-01-30T03:02:32.741Z,82.54
2023-01-30T03:07:43.758Z,82.16
2023-01-30T03:12:45.831Z,82.06
2023-01-30T03:17:48.142Z,81.86
2023-01-30T03:22:51.474Z,81.94
2023-01-30T03:27:54.636Z,82.03
2023-01-30T03:32:56.763Z,82.17
2023-01-30T03:37:58.903Z,81.81
2023-01-30T03:43:00.863Z,81.62
2023-01-30T03:48:03.389Z,81.43
2023-01-30T03:53:05.915Z,81.03
2023-01-30T03:58:07.731Z,80.62
2023-01-30T04:03:09.669Z,80.33
2023-01-30T04:08:14.005Z,79.97
2023-01-30T04:13:17.234Z,79.43
2023-01-30T04:18:19.313Z,79.19
2023-01-30T04:23:33.384Z,78.87
2023-01-30T04:28:35.335Z,78.95
2023-01-30T04:33:39.945Z,78.50
2023-01-30T04:38:42.536Z,78.49
2023-01-30T04:43:44.755Z,78.14
2023-01-30T04:49:14.691Z,78.11
2023-01-30T04:54:18.671Z,77.75
2023-01-30T04:59:20.465Z,77.27
2023-01-30T05:04:23.069Z,77.28
2023-01-30T05:09:25.335Z,77.14
2023-01-30T05:14:27.107Z,76.99
2023-01-30T05:19:28.903Z,76.92
2023-01-30T05:24:30.707Z,76.60
2023-01-30T05:29:32.480Z,76.54
2023-01-30T05:34:34.358Z,76.34
2023-01-30T05:39:36.121Z,76.19
2023-01-30T05:44:37.822Z,75.96
2023-01-30T05:49:39.608Z,75.80
2023-01-30T05:54:41.333Z,75.48
2023-01-30T05:59:43.133Z,75.66
2023-01-30T06:04:44.872Z,75.57
2023-01-30T06:09:46.679Z,75.93
2023-01-30T06:14:48.416Z,75.66
2023-01-30T06:19:50.740Z,75.61
2023-01-30T06:24:52.521Z,75.68
2023-01-30T06:29:54.308Z,75.44
2023-01-30T06:34:56.149Z,75.32
2023-01-30T06:39:57.905Z,75.05
2023-01-30T06:44:59.715Z,75.14
2023-01-30T06:50:01.516Z,74.54
2023-01-30T06:55:03.540Z,74.30
2023-01-30T07:00:06.637Z,74.48
2023-01-30T07:05:09.549Z,74.25
2023-01-30T07:10:12.156Z,74.35
2023-01-30T07:15:13.985Z,74.19
2023-01-30T07:20:16.526Z,74.14
2023-01-30T07:25:19.014Z,74.29
2023-01-30T07:30:21.293Z,73.98
2023-01-30T07:35:23.949Z,73.70
2023-01-30T07:40:26.796Z,73.46
2023-01-30T07:45:30.211Z,73.11
2023-01-30T07:50:32.008Z,73.23
2023-01-30T07:55:34.177Z,72.95
2023-01-30T08:00:36.274Z,73.30
2023-01-30T08:05:38.088Z,73.49
2023-01-30T08:10:39.937Z,73.66
2023-01-30T08:15:41.749Z,73.82
2023-01-30T08:20:43.534Z,73.36
2023-01-30T08:25:45.335Z,71.73
2023-01-30T08:30:47.446Z,70.38
2023-01-30T08:35:49.178Z,69.80
2023-01-30T08:40:50.951Z,70.11
2023-01-30T08:45:56.964Z,70.91
2023-01-30T08:50:58.822Z,70.47
2023-01-30T08:56:00.710Z,70.76
2023-01-30T09:01:06.664Z,71.35
2023-01-30T09:06:08.878Z,71.43
2023-01-30T09:12:41.571Z,71.23
2023-01-30T09:17:44.799Z,71.18
2023-01-30T09:22:46.793Z,71.09
2023-01-30T09:27:49.752Z,70.58
2023-01-30T09:32:51.700Z,70.76
2023-01-30T09:37:54.145Z,70.67
2023-01-30T09:42:58.783Z,71.47
2023-01-30T09:48:05.167Z,73.72
2023-01-30T09:53:17.434Z,75.90
2023-01-30T09:58:20.754Z,76.96
2023-01-30T10:03:41.852Z,77.64
2023-01-30T10:08:49.484Z,78.51
2023-01-30T10:13:51.300Z,79.32
2023-01-30T10:18:53.283Z,80.39
2023-01-30T10:24:13.398Z,80.86
2023-01-30T10:29:18.327Z,80.81
2023-01-30T10:34:34.596Z,80.18
2023-01-30T10:39:54.315Z,79.53
2023-01-30T10:45:02.341Z,78.85
2023-01-30T10:50:16.557Z,76.87
2023-01-30T10:55:38.865Z,76.41
2023-01-30T11:00:40.759Z,76.98
2023-01-30T11:05:53.112Z,76.65
2023-01-30T11:10:55.813Z,76.86
2023-01-30T11:15:59.704Z,77.50
2023-01-30T11:21:01.519Z,77.75
2023-01-30T11:26:11.213Z,78.36
2023-01-30T11:31:28.307Z,80.03
2023-01-30T11:36:38.212Z,83.07
2023-01-30T11:41:44.084Z,82.84
2023-01-30T11:46:45.940Z,82.92
2023-01-30T11:51:52.341Z,82.58
2023-01-30T11:56:56.478Z,81.34
2023-01-30T12:02:06.170Z,80.25
2023-01-30T12:07:16.633Z,79.19
2023-01-30T12:12:29.977Z,78.46
2023-01-30T12:17:42.842Z,79.48
2023-01-30T12:22:53.957Z,79.98
2023-01-30T12:28:01.700Z,82.56
2023-01-30T12:33:05.012Z,85.16
2023-01-30T12:38:13.923Z,87.32
2023-01-30T12:43:34.196Z,90.30
2023-01-30T12:49:10.919Z,89.49
2023-01-30T12:54:27.410Z,89.18
2023-01-30T12:59:36.309Z,89.51
2023-01-30T13:05:01.726Z,88.30
2023-01-30T13:10:34.699Z,87.02
2023-01-30T13:15:45.485Z,85.74
2023-01-30T13:20:50.670Z,84.48
2023-01-30T13:25:52.629Z,83.54
2023-01-30T13:30:55.300Z,82.50
2023-01-30T13:35:57.390Z,81.86
2023-01-30T13:41:00.463Z,80.51
2023-01-30T13:46:17.081Z,79.43
2023-01-30T13:51:37.630Z,78.03
2023-01-30T13:56:43.200Z,77.19
2023-01-30T14:02:15.069Z,77.49
2023-01-30T14:08:01.677Z,77.18
2023-01-30T14:57:57.735Z,78.80
2023-01-30T15:03:01.886Z,79.08
2023-01-30T15:08:09.791Z,79.12
2023-01-30T15:13:24.748Z,79.22
2023-01-30T15:18:45.764Z,80.01
2023-01-30T15:23:50.576Z,81.26
2023-01-30T15:28:52.338Z,81.89
2023-01-30T15:34:14.107Z,82.05
2023-01-30T15:39:18.563Z,82.01
2023-01-30T15:44:27.755Z,82.08
2023-01-30T15:49:47.939Z,82.09
2023-01-30T15:54:51.700Z,82.24
2023-01-30T15:59:54.420Z,81.62
2023-01-30T16:05:03.982Z,81.13
2023-01-30T16:10:11.680Z,80.78
2023-01-30T16:15:19.594Z,79.72
2023-01-30T16:20:22.334Z,79.45
2023-01-30T16:25:26.035Z,79.05
2023-01-30T16:30:29.429Z,78.74
2023-01-30T16:35:33.826Z,78.01
2023-01-30T16:40:45.961Z,77.54
2023-01-30T16:45:47.833Z,77.38
2023-01-30T16:50:58.958Z,77.20
2023-01-30T16:56:04.496Z,76.69
2023-01-30T17:01:08.404Z,76.92
2023-01-30T17:06:20.034Z,77.55
2023-01-30T17:11:38.096Z,76.98
2023-01-30T17:16:41.529Z,76.80
2023-01-30T17:21:45.716Z,76.88
2023-01-30T17:26:49.223Z,76.72
2023-01-30T17:31:51.818Z,77.70
2023-01-30T17:36:54.682Z,77.69
2023-01-30T17:41:56.481Z,77.78
2023-01-30T17:46:58.262Z,77.58
2023-01-30T17:52:00.382Z,77.16
2023-01-30T17:57:04.823Z,77.44
2023-01-30T18:02:09.197Z,76.92
2023-01-30T18:07:12.801Z,76.67
2023-01-30T18:12:14.743Z,76.40
2023-01-30T18:17:17.052Z,76.10
2023-01-30T18:22:18.911Z,75.82
2023-01-30T18:27:20.698Z,75.80
2023-01-30T18:32:22.538Z,75.68
2023-01-30T18:37:25.514Z,75.73
2023-01-30T18:42:27.266Z,75.06
2023-01-30T18:47:29.141Z,75.01
2023-01-30T18:52:30.936Z,75.02
2023-01-30T18:57:32.686Z,74.91
2023-01-30T19:02:34.890Z,74.58
2023-01-30T19:07:36.852Z,74.73
2023-01-30T19:12:57.692Z,74.96
2023-01-30T19:17:59.513Z,74.67
2023-01-30T19:23:01.339Z,75.02
2023-01-30T19:28:03.445Z,75.03
2023-01-30T19:33:05.323Z,75.73
2023-01-30T19:38:07.581Z,75.74
2023-01-30T19:43:11.764Z,75.90
2023-01-30T19:48:13.653Z,76.91
2023-01-30T19:53:16.099Z,77.30
2023-01-30T19:58:18.195Z,77.34
2023-01-30T20:03:20.123Z,77.85
2023-01-30T20:08:31.953Z,78.23
2023-01-30T20:13:35.426Z,79.22
2023-01-30T20:18:40.172Z,81.28
2023-01-30T20:23:42.023Z,84.08
2023-01-30T20:28:43.874Z,88.12
2023-01-30T20:33:46.109Z,89.69
2023-01-30T20:38:48.844Z,91.07
2023-01-30T20:44:00.819Z,91.33
2023-01-30T20:49:03.200Z,91.62
2023-01-30T20:54:06.242Z,91.88
2023-01-30T20:59:08.350Z,92.19
2023-01-30T21:04:13.705Z,91.72
2023-01-30T21:09:17.174Z,91.18
2023-01-30T21:14:18.982Z,90.66
2023-01-30T21:19:21.894Z,89.88
2023-01-30T21:24:28.699Z,89.67
2023-01-30T21:29:30.645Z,89.29
2023-01-30T21:34:35.163Z,88.34
2023-01-30T21:39:55.700Z,87.77
2023-01-30T21:44:58.329Z,86.83
2023-01-30T21:50:00.242Z,86.40
2023-01-30T21:55:02.474Z,86.04
2023-01-30T22:00:04.859Z,85.48
2023-01-30T22:05:07.592Z,85.45
2023-01-30T22:10:09.915Z,86.66
2023-01-30T22:15:21.950Z,86.97
2023-01-30T22:20:24.049Z,87.89
2023-01-30T22:25:26.123Z,89.23
2023-01-30T22:30:27.974Z,92.07
2023-01-30T22:35:29.804Z,94.92
2023-01-30T22:40:32.243Z,96.97
2023-01-30T22:45:37.077Z,97.91
2023-01-30T22:50:39.052Z,98.28
2023-01-30T22:55:40.866Z,98.74
2023-01-30T23:00:42.781Z,99.70
2023-01-30T23:05:44.677Z,100.00
2023-01-30T23:10:46.666Z,100.00
2023-01-30T23:15:48.487Z,100.00
2023-01-30T23:20:50.208Z,100.00
2023-01-30T23:25:52.333Z,100.00
2023-01-30T23:30:54.111Z,100.00
2023-01-30T23:36:00.216Z,100.00
2023-01-30T23:41:05.231Z,100.00
2023-01-30T23:46:27.262Z,100.00
2023-01-30T23:51:30.508Z,100.00
2023-01-30T23:56:33.593Z,100.00
